sensor_id;sensor_type;location;lat;lon;timestamp;pressure;altitude;pressure_sealevel;temperature;humidity
68141;BME280;54941;52.220;104.306;2023-04-27T00:02:16;96363.31;;;14.08;37.25
68141;BME280;54941;52.220;104.306;2023-04-27T00:04:44;96355.22;;;14.04;36.62
68141;BME280;54941;52.220;104.306;2023-04-27T00:07:10;96364.56;;;13.59;37.74
68141;BME280;54941;52.220;104.306;2023-04-27T00:09:37;96371.00;;;13.15;38.83
68141;BME280;54941;52.220;104.306;2023-04-27T00:12:03;96377.97;;;13.91;37.78
68141;BME280;54941;52.220;104.306;2023-04-27T00:14:30;96379.53;;;13.69;38.23
68141;BME280;54941;52.220;104.306;2023-04-27T00:16:56;96379.00;;;13.25;39.37
68141;BME280;54941;52.220;104.306;2023-04-27T00:19:22;96393.25;;;15.30;35.09
68141;BME280;54941;52.220;104.306;2023-04-27T00:21:50;96390.84;;;14.84;35.29
68141;BME280;54941;52.220;104.306;2023-04-27T00:24:16;96394.47;;;12.65;39.52
68141;BME280;54941;52.220;104.306;2023-04-27T00:26:43;96401.69;;;14.81;35.92
68141;BME280;54941;52.220;104.306;2023-04-27T00:29:09;96407.44;;;14.71;35.54
68141;BME280;54941;52.220;104.306;2023-04-27T00:31:35;96405.69;;;14.25;36.68
68141;BME280;54941;52.220;104.306;2023-04-27T00:34:01;96419.13;;;15.53;34.85
68141;BME280;54941;52.220;104.306;2023-04-27T00:36:28;96416.19;;;14.53;36.31
68141;BME280;54941;52.220;104.306;2023-04-27T00:38:55;96420.31;;;12.65;41.20
68141;BME280;54941;52.220;104.306;2023-04-27T00:41:22;96424.41;;;12.73;46.90
68141;BME280;54941;52.220;104.306;2023-04-27T00:43:48;96416.38;;;14.63;37.44
68141;BME280;54941;52.220;104.306;2023-04-27T00:46:15;96405.59;;;13.32;38.82
68141;BME280;54941;52.220;104.306;2023-04-27T00:48:42;96422.25;;;13.36;39.19
68141;BME280;54941;52.220;104.306;2023-04-27T00:51:09;96429.13;;;14.77;36.38
68141;BME280;54941;52.220;104.306;2023-04-27T00:53:36;96425.69;;;14.36;37.98
68141;BME280;54941;52.220;104.306;2023-04-27T00:56:06;96440.53;;;14.18;37.86
68141;BME280;54941;52.220;104.306;2023-04-27T00:58:32;96446.41;;;15.39;35.49
68141;BME280;54941;52.220;104.306;2023-04-27T01:00:59;96458.97;;;13.98;43.37
68141;BME280;54941;52.220;104.306;2023-04-27T01:03:26;96456.00;;;14.36;36.45
68141;BME280;54941;52.220;104.306;2023-04-27T01:05:53;96456.50;;;15.24;35.23
68141;BME280;54941;52.220;104.306;2023-04-27T01:08:20;96462.47;;;13.50;37.04
68141;BME280;54941;52.220;104.306;2023-04-27T01:10:46;96464.03;;;13.81;37.85
68141;BME280;54941;52.220;104.306;2023-04-27T01:13:14;96470.25;;;13.50;38.35
68141;BME280;54941;52.220;104.306;2023-04-27T01:15:40;96474.81;;;15.18;35.14
68141;BME280;54941;52.220;104.306;2023-04-27T01:18:06;96483.78;;;13.52;38.68
68141;BME280;54941;52.220;104.306;2023-04-27T01:20:33;96475.22;;;14.05;37.86
68141;BME280;54941;52.220;104.306;2023-04-27T01:22:59;96486.94;;;15.52;35.47
68141;BME280;54941;52.220;104.306;2023-04-27T01:25:27;96486.22;;;16.18;33.01
68141;BME280;54941;52.220;104.306;2023-04-27T01:27:53;96483.34;;;16.70;32.20
68141;BME280;54941;52.220;104.306;2023-04-27T01:30:19;96491.72;;;14.92;34.81
68141;BME280;54941;52.220;104.306;2023-04-27T01:32:46;96488.59;;;15.58;34.00
68141;BME280;54941;52.220;104.306;2023-04-27T01:35:12;96504.63;;;13.99;36.67
68141;BME280;54941;52.220;104.306;2023-04-27T01:37:38;96501.56;;;15.86;32.70
68141;BME280;54941;52.220;104.306;2023-04-27T01:40:06;96498.53;;;13.82;36.46
68141;BME280;54941;52.220;104.306;2023-04-27T01:42:34;96508.75;;;13.77;38.54
68141;BME280;54941;52.220;104.306;2023-04-27T01:45:00;96506.59;;;15.76;34.76
68141;BME280;54941;52.220;104.306;2023-04-27T01:47:27;96509.84;;;16.67;32.28
68141;BME280;54941;52.220;104.306;2023-04-27T01:49:53;96485.09;;;15.97;34.05
68141;BME280;54941;52.220;104.306;2023-04-27T01:54:19;96511.22;;;15.74;33.50
68141;BME280;54941;52.220;104.306;2023-04-27T01:56:45;96506.28;;;14.70;34.39
68141;BME280;54941;52.220;104.306;2023-04-27T01:59:11;96520.09;;;16.23;33.15
68141;BME280;54941;52.220;104.306;2023-04-27T02:01:38;96525.16;;;16.63;31.29
68141;BME280;54941;52.220;104.306;2023-04-27T02:04:04;96501.25;;;16.16;31.72
68141;BME280;54941;52.220;104.306;2023-04-27T02:06:30;96504.59;;;17.22;30.03
68141;BME280;54941;52.220;104.306;2023-04-27T02:08:57;96517.75;;;17.37;30.07
68141;BME280;54941;52.220;104.306;2023-04-27T02:11:24;96514.38;;;18.80;27.48
68141;BME280;54941;52.220;104.306;2023-04-27T02:13:51;96517.94;;;19.99;25.99
68141;BME280;54941;52.220;104.306;2023-04-27T02:16:17;96513.72;;;19.82;25.49
68141;BME280;54941;52.220;104.306;2023-04-27T02:18:43;96520.91;;;21.42;23.99
68141;BME280;54941;52.220;104.306;2023-04-27T02:21:10;96517.66;;;20.10;24.72
68141;BME280;54941;52.220;104.306;2023-04-27T02:23:36;96529.19;;;19.84;25.70
68141;BME280;54941;52.220;104.306;2023-04-27T02:26:03;96527.03;;;21.76;23.07
68141;BME280;54941;52.220;104.306;2023-04-27T02:28:30;96530.78;;;20.40;24.24
68141;BME280;54941;52.220;104.306;2023-04-27T02:30:57;96522.31;;;21.04;23.51
68141;BME280;54941;52.220;104.306;2023-04-27T02:33:23;96540.78;;;17.88;27.46
68141;BME280;54941;52.220;104.306;2023-04-27T02:35:49;96528.00;;;18.87;24.77
68141;BME280;54941;52.220;104.306;2023-04-27T02:38:16;96518.81;;;19.32;25.36
68141;BME280;54941;52.220;104.306;2023-04-27T02:40:42;96529.50;;;18.10;25.94
68141;BME280;54941;52.220;104.306;2023-04-27T02:43:08;96531.03;;;16.92;25.87
68141;BME280;54941;52.220;104.306;2023-04-27T02:45:37;96521.66;;;18.73;24.53
68141;BME280;54941;52.220;104.306;2023-04-27T02:48:04;96527.81;;;19.71;23.00
68141;BME280;54941;52.220;104.306;2023-04-27T02:50:30;96520.06;;;20.52;22.80
68141;BME280;54941;52.220;104.306;2023-04-27T02:52:56;96539.94;;;20.23;23.33
68141;BME280;54941;52.220;104.306;2023-04-27T02:55:23;96532.38;;;18.45;24.15
68141;BME280;54941;52.220;104.306;2023-04-27T02:57:49;96524.63;;;17.65;25.11
68141;BME280;54941;52.220;104.306;2023-04-27T03:01:50;96536.44;;;17.72;25.28
68141;BME280;54941;52.220;104.306;2023-04-27T03:04:16;96533.66;;;19.26;23.08
68141;BME280;54941;52.220;104.306;2023-04-27T03:06:42;96531.28;;;17.77;26.11
68141;BME280;54941;52.220;104.306;2023-04-27T03:09:09;96520.59;;;18.06;23.96
68141;BME280;54941;52.220;104.306;2023-04-27T03:11:35;96533.09;;;18.35;25.09
68141;BME280;54941;52.220;104.306;2023-04-27T03:14:02;96541.34;;;16.65;25.84
68141;BME280;54941;52.220;104.306;2023-04-27T03:16:30;96536.91;;;18.23;24.36
68141;BME280;54941;52.220;104.306;2023-04-27T03:18:58;96534.44;;;18.75;24.13
68141;BME280;54941;52.220;104.306;2023-04-27T03:21:24;96538.53;;;19.55;22.46
68141;BME280;54941;52.220;104.306;2023-04-27T03:23:50;96560.00;;;21.93;21.02
68141;BME280;54941;52.220;104.306;2023-04-27T03:26:17;96545.19;;;20.48;21.44
68141;BME280;54941;52.220;104.306;2023-04-27T03:28:43;96542.94;;;18.97;23.40
68141;BME280;54941;52.220;104.306;2023-04-27T03:31:11;96551.31;;;21.97;20.46
68141;BME280;54941;52.220;104.306;2023-04-27T03:33:38;96553.13;;;21.48;20.04
68141;BME280;54941;52.220;104.306;2023-04-27T03:36:07;96544.78;;;22.28;18.94
68141;BME280;54941;52.220;104.306;2023-04-27T03:38:34;96555.81;;;21.87;20.67
68141;BME280;54941;52.220;104.306;2023-04-27T03:41:00;96552.22;;;20.98;21.25
68141;BME280;54941;52.220;104.306;2023-04-27T03:43:27;96554.16;;;18.56;23.24
68141;BME280;54941;52.220;104.306;2023-04-27T03:45:53;96558.09;;;18.95;21.16
68141;BME280;54941;52.220;104.306;2023-04-27T03:48:20;96552.09;;;18.31;23.27
68141;BME280;54941;52.220;104.306;2023-04-27T03:50:46;96554.84;;;20.93;20.67
68141;BME280;54941;52.220;104.306;2023-04-27T03:53:14;96552.78;;;22.47;20.23
68141;BME280;54941;52.220;104.306;2023-04-27T03:55:41;96549.19;;;19.48;22.52
68141;BME280;54941;52.220;104.306;2023-04-27T03:58:08;96552.63;;;18.33;23.16
68141;BME280;54941;52.220;104.306;2023-04-27T04:00:35;96551.03;;;18.27;24.08
68141;BME280;54941;52.220;104.306;2023-04-27T04:03:01;96555.94;;;20.36;21.98
68141;BME280;54941;52.220;104.306;2023-04-27T04:05:27;96557.31;;;19.47;21.59
68141;BME280;54941;52.220;104.306;2023-04-27T04:07:54;96563.44;;;18.73;22.73
68141;BME280;54941;52.220;104.306;2023-04-27T04:10:22;96549.06;;;20.00;21.14
68141;BME280;54941;52.220;104.306;2023-04-27T04:12:48;96566.91;;;20.94;20.93
68141;BME280;54941;52.220;104.306;2023-04-27T04:15:14;96562.06;;;21.36;20.22
68141;BME280;54941;52.220;104.306;2023-04-27T04:17:41;96552.78;;;20.75;19.83
68141;BME280;54941;52.220;104.306;2023-04-27T04:20:08;96559.81;;;22.23;17.71
68141;BME280;54941;52.220;104.306;2023-04-27T04:22:34;96550.13;;;21.69;18.92
68141;BME280;54941;52.220;104.306;2023-04-27T04:25:00;96544.94;;;18.48;21.75
68141;BME280;54941;52.220;104.306;2023-04-27T04:27:28;96526.84;;;20.18;20.01
68141;BME280;54941;52.220;104.306;2023-04-27T04:29:55;96552.78;;;22.81;18.81
68141;BME280;54941;52.220;104.306;2023-04-27T04:32:21;96561.34;;;24.24;17.22
68141;BME280;54941;52.220;104.306;2023-04-27T04:34:48;96559.41;;;24.11;17.14
68141;BME280;54941;52.220;104.306;2023-04-27T04:37:14;96565.28;;;22.94;17.66
68141;BME280;54941;52.220;104.306;2023-04-27T04:39:40;96553.47;;;21.26;18.43
68141;BME280;54941;52.220;104.306;2023-04-27T04:42:06;96561.31;;;21.31;18.46
68141;BME280;54941;52.220;104.306;2023-04-27T04:44:34;96548.25;;;21.21;18.90
68141;BME280;54941;52.220;104.306;2023-04-27T04:47:00;96555.03;;;22.93;18.89
68141;BME280;54941;52.220;104.306;2023-04-27T04:49:27;96556.53;;;22.41;18.69
68141;BME280;54941;52.220;104.306;2023-04-27T04:51:53;96561.28;;;21.46;19.02
68141;BME280;54941;52.220;104.306;2023-04-27T04:54:19;96559.19;;;21.38;18.21
68141;BME280;54941;52.220;104.306;2023-04-27T04:56:45;96566.25;;;22.02;19.13
68141;BME280;54941;52.220;104.306;2023-04-27T04:59:12;96562.00;;;21.57;18.88
68141;BME280;54941;52.220;104.306;2023-04-27T05:01:40;96569.38;;;22.76;18.97
68141;BME280;54941;52.220;104.306;2023-04-27T05:04:06;96565.53;;;22.64;18.08
68141;BME280;54941;52.220;104.306;2023-04-27T05:06:32;96571.88;;;22.92;19.04
68141;BME280;54941;52.220;104.306;2023-04-27T05:08:58;96555.81;;;22.30;18.84
68141;BME280;54941;52.220;104.306;2023-04-27T05:11:25;96553.75;;;21.78;18.29
68141;BME280;54941;52.220;104.306;2023-04-27T05:13:51;96548.28;;;20.96;19.69
68141;BME280;54941;52.220;104.306;2023-04-27T05:16:17;96539.38;;;23.91;16.99
68141;BME280;54941;52.220;104.306;2023-04-27T05:18:45;96536.91;;;21.90;18.06
68141;BME280;54941;52.220;104.306;2023-04-27T05:21:15;96527.63;;;22.99;17.11
68141;BME280;54941;52.220;104.306;2023-04-27T05:23:41;96535.63;;;22.89;18.43
68141;BME280;54941;52.220;104.306;2023-04-27T05:26:11;96535.09;;;21.31;18.68
68141;BME280;54941;52.220;104.306;2023-04-27T05:28:37;96546.56;;;21.99;18.64
68141;BME280;54941;52.220;104.306;2023-04-27T05:31:04;96541.25;;;25.34;16.30
68141;BME280;54941;52.220;104.306;2023-04-27T05:33:30;96546.28;;;24.06;16.22
68141;BME280;54941;52.220;104.306;2023-04-27T05:35:58;96543.06;;;22.48;17.98
68141;BME280;54941;52.220;104.306;2023-04-27T05:38:24;96539.66;;;24.46;16.90
68141;BME280;54941;52.220;104.306;2023-04-27T05:40:53;96548.41;;;23.24;17.47
68141;BME280;54941;52.220;104.306;2023-04-27T05:43:20;96548.06;;;23.92;17.19
68141;BME280;54941;52.220;104.306;2023-04-27T05:45:46;96553.47;;;22.92;16.35
68141;BME280;54941;52.220;104.306;2023-04-27T05:48:12;96547.03;;;20.37;18.17
68141;BME280;54941;52.220;104.306;2023-04-27T05:50:38;96541.47;;;20.95;19.43
68141;BME280;54941;52.220;104.306;2023-04-27T05:53:06;96546.97;;;21.13;18.88
68141;BME280;54941;52.220;104.306;2023-04-27T05:55:33;96540.97;;;20.22;18.79
68141;BME280;54941;52.220;104.306;2023-04-27T05:58:00;96552.50;;;20.66;18.38
68141;BME280;54941;52.220;104.306;2023-04-27T06:00:27;96551.25;;;22.07;18.79
68141;BME280;54941;52.220;104.306;2023-04-27T06:02:53;96551.88;;;21.25;18.78
68141;BME280;54941;52.220;104.306;2023-04-27T06:05:20;96538.91;;;19.31;20.03
68141;BME280;54941;52.220;104.306;2023-04-27T06:07:46;96538.88;;;21.69;19.62
68141;BME280;54941;52.220;104.306;2023-04-27T06:10:14;96544.41;;;20.68;17.96
68141;BME280;54941;52.220;104.306;2023-04-27T06:12:40;96540.13;;;19.71;19.85
68141;BME280;54941;52.220;104.306;2023-04-27T06:15:07;96539.16;;;20.73;19.84
68141;BME280;54941;52.220;104.306;2023-04-27T06:17:34;96549.59;;;19.87;19.54
68141;BME280;54941;52.220;104.306;2023-04-27T06:20:00;96547.22;;;19.13;20.20
68141;BME280;54941;52.220;104.306;2023-04-27T06:22:27;96542.22;;;19.79;19.57
68141;BME280;54941;52.220;104.306;2023-04-27T06:24:53;96542.84;;;20.31;19.05
68141;BME280;54941;52.220;104.306;2023-04-27T06:27:21;96535.50;;;20.13;18.23
68141;BME280;54941;52.220;104.306;2023-04-27T06:29:47;96545.06;;;19.57;21.39
68141;BME280;54941;52.220;104.306;2023-04-27T06:32:13;96535.44;;;17.78;22.14
68141;BME280;54941;52.220;104.306;2023-04-27T06:34:39;96542.31;;;20.24;22.04
68141;BME280;54941;52.220;104.306;2023-04-27T06:37:06;96529.91;;;19.02;20.52
68141;BME280;54941;52.220;104.306;2023-04-27T06:39:33;96534.03;;;18.51;20.41
68141;BME280;54941;52.220;104.306;2023-04-27T06:42:00;96531.41;;;18.19;21.60
68141;BME280;54941;52.220;104.306;2023-04-27T06:44:27;96527.56;;;18.59;20.88
68141;BME280;54941;52.220;104.306;2023-04-27T06:46:54;96525.91;;;17.62;21.54
68141;BME280;54941;52.220;104.306;2023-04-27T06:49:20;96530.97;;;17.52;22.17
68141;BME280;54941;52.220;104.306;2023-04-27T06:51:47;96531.84;;;18.43;21.56
68141;BME280;54941;52.220;104.306;2023-04-27T06:54:13;96534.72;;;17.83;22.05
68141;BME280;54941;52.220;104.306;2023-04-27T06:56:39;96520.91;;;19.35;20.58
68141;BME280;54941;52.220;104.306;2023-04-27T06:59:06;96526.25;;;19.08;22.42
68141;BME280;54941;52.220;104.306;2023-04-27T07:01:35;96518.66;;;19.02;22.97
68141;BME280;54941;52.220;104.306;2023-04-27T07:04:02;96522.34;;;18.64;22.17
68141;BME280;54941;52.220;104.306;2023-04-27T07:06:29;96527.75;;;17.88;22.05
68141;BME280;54941;52.220;104.306;2023-04-27T07:08:55;96527.22;;;17.43;21.44
68141;BME280;54941;52.220;104.306;2023-04-27T07:11:21;96534.31;;;17.69;23.35
68141;BME280;54941;52.220;104.306;2023-04-27T07:13:48;96524.19;;;17.73;23.26
68141;BME280;54941;52.220;104.306;2023-04-27T07:16:14;96533.47;;;18.17;21.91
68141;BME280;54941;52.220;104.306;2023-04-27T07:18:43;96533.47;;;18.17;21.91
68141;BME280;54941;52.220;104.306;2023-04-27T07:21:10;96525.13;;;17.62;21.88
68141;BME280;54941;52.220;104.306;2023-04-27T07:23:37;96517.47;;;17.55;22.69
68141;BME280;54941;52.220;104.306;2023-04-27T07:26:03;96525.34;;;17.38;23.53
68141;BME280;54941;52.220;104.306;2023-04-27T07:28:29;96530.00;;;17.80;23.11
68141;BME280;54941;52.220;104.306;2023-04-27T07:30:55;96518.75;;;17.09;22.11
68141;BME280;54941;52.220;104.306;2023-04-27T07:33:22;96515.31;;;18.00;21.81
68141;BME280;54941;52.220;104.306;2023-04-27T07:35:50;96514.81;;;17.07;23.37
68141;BME280;54941;52.220;104.306;2023-04-27T07:38:16;96523.63;;;17.97;23.15
68141;BME280;54941;52.220;104.306;2023-04-27T07:40:42;96519.13;;;17.39;23.16
68141;BME280;54941;52.220;104.306;2023-04-27T07:43:08;96523.28;;;18.89;21.00
68141;BME280;54941;52.220;104.306;2023-04-27T07:45:35;96524.03;;;17.58;22.27
68141;BME280;54941;52.220;104.306;2023-04-27T07:48:01;96534.63;;;18.31;21.75
68141;BME280;54941;52.220;104.306;2023-04-27T07:50:28;96538.16;;;17.62;23.02
68141;BME280;54941;52.220;104.306;2023-04-27T07:52:57;96532.00;;;18.63;21.44
68141;BME280;54941;52.220;104.306;2023-04-27T07:55:23;96533.00;;;18.94;21.41
68141;BME280;54941;52.220;104.306;2023-04-27T07:57:51;96536.94;;;18.55;21.98
68141;BME280;54941;52.220;104.306;2023-04-27T08:00:18;96531.41;;;18.93;22.51
68141;BME280;54941;52.220;104.306;2023-04-27T08:02:45;96531.13;;;19.41;22.38
68141;BME280;54941;52.220;104.306;2023-04-27T08:05:11;96528.09;;;19.03;21.11
68141;BME280;54941;52.220;104.306;2023-04-27T08:07:37;96539.88;;;19.10;21.35
68141;BME280;54941;52.220;104.306;2023-04-27T08:10:06;96537.19;;;18.26;21.46
68141;BME280;54941;52.220;104.306;2023-04-27T08:12:33;96527.75;;;16.46;24.25
68141;BME280;54941;52.220;104.306;2023-04-27T08:14:59;96533.56;;;16.53;23.41
68141;BME280;54941;52.220;104.306;2023-04-27T08:17:26;96529.72;;;16.73;22.74
68141;BME280;54941;52.220;104.306;2023-04-27T08:19:52;96538.09;;;17.35;24.11
68141;BME280;54941;52.220;104.306;2023-04-27T08:22:19;96543.22;;;17.51;23.57
68141;BME280;54941;52.220;104.306;2023-04-27T08:24:45;96545.00;;;18.21;23.89
68141;BME280;54941;52.220;104.306;2023-04-27T08:27:13;96543.75;;;16.88;24.27
68141;BME280;54941;52.220;104.306;2023-04-27T08:29:44;96542.28;;;18.75;22.65
68141;BME280;54941;52.220;104.306;2023-04-27T08:32:10;96539.72;;;18.85;22.83
68141;BME280;54941;52.220;104.306;2023-04-27T08:34:36;96546.94;;;16.74;24.42
68141;BME280;54941;52.220;104.306;2023-04-27T08:37:03;96544.31;;;17.34;22.69
68141;BME280;54941;52.220;104.306;2023-04-27T08:39:29;96543.97;;;17.47;24.36
68141;BME280;54941;52.220;104.306;2023-04-27T08:41:56;96540.53;;;16.81;24.40
68141;BME280;54941;52.220;104.306;2023-04-27T08:44:24;96549.38;;;17.62;23.45
68141;BME280;54941;52.220;104.306;2023-04-27T08:46:50;96547.31;;;17.04;23.13
68141;BME280;54941;52.220;104.306;2023-04-27T08:49:16;96554.69;;;17.50;24.43
68141;BME280;54941;52.220;104.306;2023-04-27T08:51:43;96546.69;;;16.75;24.68
68141;BME280;54941;52.220;104.306;2023-04-27T08:54:09;96556.28;;;16.91;24.39
68141;BME280;54941;52.220;104.306;2023-04-27T08:56:35;96557.16;;;17.19;22.73
68141;BME280;54941;52.220;104.306;2023-04-27T08:59:02;96549.06;;;18.12;22.59
68141;BME280;54941;52.220;104.306;2023-04-27T09:01:30;96553.53;;;17.41;22.46
68141;BME280;54941;52.220;104.306;2023-04-27T09:03:59;96551.78;;;17.25;22.81
68141;BME280;54941;52.220;104.306;2023-04-27T09:06:30;96556.75;;;18.92;21.27
68141;BME280;54941;52.220;104.306;2023-04-27T09:08:56;96549.03;;;18.66;22.99
68141;BME280;54941;52.220;104.306;2023-04-27T09:11:28;96551.47;;;17.43;22.86
68141;BME280;54941;52.220;104.306;2023-04-27T09:13:55;96548.19;;;19.07;23.27
68141;BME280;54941;52.220;104.306;2023-04-27T09:16:22;96544.91;;;16.97;23.62
68141;BME280;54941;52.220;104.306;2023-04-27T09:18:51;96559.06;;;17.67;23.14
68141;BME280;54941;52.220;104.306;2023-04-27T09:21:22;96557.03;;;17.30;23.20
68141;BME280;54941;52.220;104.306;2023-04-27T09:23:48;96545.09;;;17.56;23.88
68141;BME280;54941;52.220;104.306;2023-04-27T09:26:19;96547.88;;;17.49;22.36
68141;BME280;54941;52.220;104.306;2023-04-27T09:28:47;96541.28;;;16.82;24.33
68141;BME280;54941;52.220;104.306;2023-04-27T09:31:14;96553.59;;;17.25;22.93
68141;BME280;54941;52.220;104.306;2023-04-27T09:33:42;96559.00;;;19.21;21.11
68141;BME280;54941;52.220;104.306;2023-04-27T09:36:10;96555.53;;;19.57;21.31
68141;BME280;54941;52.220;104.306;2023-04-27T09:38:36;96560.44;;;18.60;23.00
68141;BME280;54941;52.220;104.306;2023-04-27T09:41:03;96561.75;;;17.98;23.30
68141;BME280;54941;52.220;104.306;2023-04-27T09:43:29;96560.66;;;17.94;22.72
68141;BME280;54941;52.220;104.306;2023-04-27T09:45:56;96566.25;;;18.67;22.79
68141;BME280;54941;52.220;104.306;2023-04-27T09:48:23;96562.53;;;18.58;21.31
68141;BME280;54941;52.220;104.306;2023-04-27T09:50:50;96553.00;;;18.73;21.28
68141;BME280;54941;52.220;104.306;2023-04-27T09:53:20;96572.16;;;20.59;21.87
68141;BME280;54941;52.220;104.306;2023-04-27T09:55:53;96567.84;;;19.62;21.07
68141;BME280;54941;52.220;104.306;2023-04-27T09:58:38;96576.28;;;20.04;20.18
68141;BME280;54941;52.220;104.306;2023-04-27T10:01:14;96573.53;;;19.59;21.35
68141;BME280;54941;52.220;104.306;2023-04-27T10:03:50;96571.19;;;19.05;21.11
68141;BME280;54941;52.220;104.306;2023-04-27T10:06:50;96575.47;;;18.16;22.66
68141;BME280;54941;52.220;104.306;2023-04-27T10:09:21;96576.19;;;18.11;21.80
68141;BME280;54941;52.220;104.306;2023-04-27T10:11:47;96572.94;;;17.50;23.08
68141;BME280;54941;52.220;104.306;2023-04-27T10:14:17;96573.00;;;16.95;24.26
68141;BME280;54941;52.220;104.306;2023-04-27T10:16:44;96581.19;;;17.04;24.01
68141;BME280;54941;52.220;104.306;2023-04-27T10:19:11;96577.84;;;17.69;24.02
68141;BME280;54941;52.220;104.306;2023-04-27T10:21:38;96580.19;;;16.55;24.15
68141;BME280;54941;52.220;104.306;2023-04-27T10:24:15;96586.19;;;17.92;23.04
68141;BME280;54941;52.220;104.306;2023-04-27T10:26:46;96586.00;;;17.56;23.41
68141;BME280;54941;52.220;104.306;2023-04-27T10:29:13;96580.47;;;16.70;23.02
68141;BME280;54941;52.220;104.306;2023-04-27T10:31:43;96580.91;;;17.22;24.47
68141;BME280;54941;52.220;104.306;2023-04-27T10:34:14;96583.28;;;18.42;22.53
68141;BME280;54941;52.220;104.306;2023-04-27T10:36:40;96590.91;;;17.69;23.73
68141;BME280;54941;52.220;104.306;2023-04-27T10:39:14;96589.66;;;17.98;23.25
68141;BME280;54941;52.220;104.306;2023-04-27T10:41:51;96591.59;;;17.86;22.65
68141;BME280;54941;52.220;104.306;2023-04-27T10:44:18;96588.56;;;18.21;22.40
68141;BME280;54941;52.220;104.306;2023-04-27T10:46:51;96586.41;;;16.54;23.37
68141;BME280;54941;52.220;104.306;2023-04-27T10:49:17;96593.00;;;18.20;23.35
68141;BME280;54941;52.220;104.306;2023-04-27T10:51:44;96583.91;;;19.38;21.25
68141;BME280;54941;52.220;104.306;2023-04-27T10:54:11;96590.72;;;19.39;22.44
68141;BME280;54941;52.220;104.306;2023-04-27T10:56:37;96588.41;;;20.61;21.10
68141;BME280;54941;52.220;104.306;2023-04-27T10:59:05;96588.16;;;20.82;19.75
68141;BME280;54941;52.220;104.306;2023-04-27T11:01:31;96588.91;;;21.82;19.79
68141;BME280;54941;52.220;104.306;2023-04-27T11:03:58;96585.06;;;22.53;18.18
68141;BME280;54941;52.220;104.306;2023-04-27T11:06:25;96582.16;;;20.62;19.51
68141;BME280;54941;52.220;104.306;2023-04-27T11:08:51;96577.94;;;20.61;19.85
68141;BME280;54941;52.220;104.306;2023-04-27T11:11:17;96580.50;;;20.15;20.10
68141;BME280;54941;52.220;104.306;2023-04-27T11:13:47;96572.16;;;20.59;19.63
68141;BME280;54941;52.220;104.306;2023-04-27T11:16:15;96575.66;;;19.10;20.62
68141;BME280;54941;52.220;104.306;2023-04-27T11:18:42;96581.53;;;20.14;19.90
68141;BME280;54941;52.220;104.306;2023-04-27T11:21:09;96575.56;;;20.44;20.45
68141;BME280;54941;52.220;104.306;2023-04-27T11:23:37;96579.38;;;19.81;20.72
68141;BME280;54941;52.220;104.306;2023-04-27T11:26:09;96576.69;;;19.56;20.46
68141;BME280;54941;52.220;104.306;2023-04-27T11:28:35;96577.56;;;19.86;20.38
68141;BME280;54941;52.220;104.306;2023-04-27T11:31:02;96578.03;;;18.74;21.31
68141;BME280;54941;52.220;104.306;2023-04-27T11:33:30;96581.63;;;20.39;21.30
68141;BME280;54941;52.220;104.306;2023-04-27T11:35:56;96581.41;;;19.59;20.91
68141;BME280;54941;52.220;104.306;2023-04-27T11:38:23;96592.09;;;20.50;20.49
68141;BME280;54941;52.220;104.306;2023-04-27T11:40:58;96595.53;;;18.69;21.81
68141;BME280;54941;52.220;104.306;2023-04-27T11:43:26;96586.72;;;19.89;21.03
68141;BME280;54941;52.220;104.306;2023-04-27T11:45:52;96588.88;;;19.35;21.61
68141;BME280;54941;52.220;104.306;2023-04-27T11:48:19;96601.09;;;18.51;21.73
68141;BME280;54941;52.220;104.306;2023-04-27T11:50:47;96600.50;;;19.54;22.06
68141;BME280;54941;52.220;104.306;2023-04-27T11:53:14;96607.28;;;20.68;20.29
68141;BME280;54941;52.220;104.306;2023-04-27T11:55:41;96613.78;;;20.30;21.16
68141;BME280;54941;52.220;104.306;2023-04-27T11:58:12;96609.56;;;20.09;21.21
68141;BME280;54941;52.220;104.306;2023-04-27T12:00:39;96609.13;;;20.57;20.46
68141;BME280;54941;52.220;104.306;2023-04-27T12:03:06;96609.91;;;19.60;22.00
68141;BME280;54941;52.220;104.306;2023-04-27T12:05:33;96616.78;;;19.81;22.29
68141;BME280;54941;52.220;104.306;2023-04-27T12:08:01;96614.09;;;19.14;23.82
68141;BME280;54941;52.220;104.306;2023-04-27T12:10:28;96617.91;;;19.38;23.13
68141;BME280;54941;52.220;104.306;2023-04-27T12:12:54;96608.88;;;19.66;22.55
68141;BME280;54941;52.220;104.306;2023-04-27T12:15:20;96614.97;;;19.30;22.40
68141;BME280;54941;52.220;104.306;2023-04-27T12:17:47;96612.47;;;17.86;23.69
68141;BME280;54941;52.220;104.306;2023-04-27T12:20:13;96605.94;;;17.45;23.94
68141;BME280;54941;52.220;104.306;2023-04-27T12:22:40;96605.31;;;18.25;23.68
68141;BME280;54941;52.220;104.306;2023-04-27T12:25:08;96609.34;;;18.11;25.46
68141;BME280;54941;52.220;104.306;2023-04-27T12:27:34;96608.81;;;17.43;25.27
68141;BME280;54941;52.220;104.306;2023-04-27T12:30:00;96612.66;;;18.33;25.84
68141;BME280;54941;52.220;104.306;2023-04-27T12:32:27;96619.09;;;17.72;25.77
68141;BME280;54941;52.220;104.306;2023-04-27T12:34:53;96616.72;;;18.19;25.55
68141;BME280;54941;52.220;104.306;2023-04-27T12:37:19;96613.19;;;17.60;25.15
68141;BME280;54941;52.220;104.306;2023-04-27T12:39:46;96618.06;;;17.34;25.64
68141;BME280;54941;52.220;104.306;2023-04-27T12:42:13;96622.63;;;17.44;25.80
68141;BME280;54941;52.220;104.306;2023-04-27T12:44:40;96621.81;;;17.22;25.78